createdAt,value
2022-08-03T00:03:38.343Z,49.68
2022-08-03T00:08:41.088Z,49.60
2022-08-03T00:13:45.339Z,49.66
2022-08-03T00:18:48.070Z,49.70
2022-08-03T00:23:51.139Z,49.67
2022-08-03T00:28:56.674Z,49.66
2022-08-03T00:34:03.314Z,49.71
2022-08-03T00:39:06.335Z,49.67
2022-08-03T00:44:10.387Z,49.73
2022-08-03T00:49:13.131Z,49.79
2022-08-03T00:54:15.984Z,49.81
2022-08-03T00:59:20.104Z,49.92
2022-08-03T01:04:22.861Z,49.81
2022-08-03T01:09:34.186Z,49.78
2022-08-03T01:14:42.728Z,49.78
2022-08-03T01:19:51.255Z,49.70
2022-08-03T01:25:03.079Z,49.84
2022-08-03T01:30:09.328Z,49.84
2022-08-03T01:35:15.376Z,49.89
2022-08-03T01:40:18.805Z,49.93
2022-08-03T01:45:23.626Z,49.92
2022-08-03T01:50:29.151Z,50.03
2022-08-03T01:55:33.271Z,49.92
2022-08-03T02:00:38.863Z,49.89
2022-08-03T02:05:42.450Z,50.05
2022-08-03T02:10:46.137Z,49.93
2022-08-03T02:15:51.660Z,49.96
2022-08-03T02:20:54.726Z,49.98
2022-08-03T02:26:01.874Z,49.99
2022-08-03T02:31:09.090Z,50.09
2022-08-03T02:36:12.910Z,50.00
2022-08-03T02:41:18.163Z,50.05
2022-08-03T02:46:24.131Z,49.92
2022-08-03T02:51:27.823Z,49.96
2022-08-03T02:56:30.811Z,49.97
2022-08-03T03:01:35.015Z,50.04
2022-08-03T03:06:38.252Z,49.98
2022-08-03T03:11:43.422Z,49.96
2022-08-03T03:16:47.980Z,50.06
2022-08-03T03:21:54.292Z,50.03
2022-08-03T03:26:57.808Z,49.98
2022-08-03T03:32:02.713Z,50.01
2022-08-03T03:37:06.118Z,49.94
2022-08-03T03:42:09.009Z,50.05
2022-08-03T03:47:13.356Z,50.07
2022-08-03T03:52:17.919Z,50.09
2022-08-03T03:57:20.779Z,50.14
2022-08-03T04:02:24.878Z,50.11
2022-08-03T04:07:46.263Z,50.14
2022-08-03T04:12:50.811Z,50.14
2022-08-03T04:17:56.640Z,50.15
2022-08-03T04:23:00.845Z,50.15
2022-08-03T04:28:20.961Z,50.15
2022-08-03T04:33:29.423Z,50.06
2022-08-03T04:38:34.249Z,50.17
2022-08-03T04:43:39.563Z,50.14
2022-08-03T04:48:45.038Z,50.12
2022-08-03T04:53:47.813Z,50.00
2022-08-03T04:58:50.535Z,50.02
2022-08-03T05:03:54.607Z,50.09
2022-08-03T05:08:57.393Z,50.02
2022-08-03T05:14:00.113Z,49.68
2022-08-03T05:19:04.234Z,49.24
2022-08-03T05:24:07.352Z,49.07
2022-08-03T05:29:10.046Z,49.02
2022-08-03T05:34:14.136Z,48.96
2022-08-03T05:39:16.832Z,48.84
2022-08-03T05:44:19.574Z,48.79
2022-08-03T05:49:23.683Z,49.16
2022-08-03T05:54:26.549Z,49.24
2022-08-03T05:59:56.401Z,49.10
2022-08-03T06:05:02.927Z,48.99
2022-08-03T06:10:36.028Z,48.86
2022-08-03T06:15:29.471Z,48.79
2022-08-03T06:20:33.534Z,48.63
2022-08-03T06:25:37.910Z,48.52
2022-08-03T06:30:40.665Z,48.27
2022-08-03T06:35:45.190Z,48.15
2022-08-03T06:40:48.050Z,48.25
2022-08-03T06:45:53.681Z,47.90
2022-08-03T06:50:57.714Z,47.90
2022-08-03T06:56:00.512Z,47.70
2022-08-03T07:01:03.296Z,47.49
2022-08-03T07:06:07.476Z,47.44
2022-08-03T07:11:10.204Z,47.21
2022-08-03T07:16:12.936Z,47.37
2022-08-03T07:21:17.058Z,47.17
2022-08-03T07:26:19.774Z,47.04
2022-08-03T07:31:22.505Z,47.26
2022-08-03T07:36:27.025Z,47.07
2022-08-03T07:41:29.812Z,47.31
2022-08-03T07:46:32.859Z,47.49
2022-08-03T07:51:37.003Z,47.59
2022-08-03T07:56:39.773Z,47.66
2022-08-03T08:01:42.572Z,47.69
2022-08-03T08:06:46.811Z,47.74
2022-08-03T08:11:50.506Z,47.66
2022-08-03T08:16:53.305Z,47.64
2022-08-03T08:22:02.316Z,47.73
2022-08-03T08:27:05.560Z,47.62
2022-08-03T08:32:09.014Z,47.94
2022-08-03T08:37:13.047Z,47.77
2022-08-03T08:42:16.851Z,47.70
2022-08-03T08:47:20.601Z,47.70
2022-08-03T08:52:31.900Z,47.73
2022-08-03T08:57:44.702Z,47.58
2022-08-03T09:02:47.768Z,47.48
2022-08-03T09:07:52.975Z,47.75
2022-08-03T09:12:55.703Z,47.76
2022-08-03T09:18:00.036Z,47.84
2022-08-03T09:23:59.090Z,47.93
2022-08-03T09:29:00.177Z,47.99
2022-08-03T09:34:01.117Z,48.23
2022-08-03T09:39:06.479Z,48.17
2022-08-03T09:44:16.210Z,48.09
2022-08-03T09:49:28.641Z,48.04
2022-08-03T09:54:34.171Z,48.13
2022-08-03T09:59:39.119Z,48.08
2022-08-03T10:04:48.627Z,48.04
2022-08-03T10:09:57.636Z,48.10
2022-08-03T10:15:00.384Z,48.11
2022-08-03T10:20:03.973Z,48.22
2022-08-03T10:25:09.904Z,48.32
2022-08-03T10:30:13.125Z,48.23
2022-08-03T10:35:20.193Z,48.14
2022-08-03T10:40:46.832Z,48.19
2022-08-03T10:45:49.478Z,48.31
2022-08-03T10:50:52.499Z,48.14
2022-08-03T10:56:13.998Z,48.27
2022-08-03T11:02:01.563Z,48.59
2022-08-03T11:07:21.600Z,48.74
2022-08-03T11:12:30.904Z,48.97
2022-08-03T11:17:45.781Z,49.19
2022-08-03T11:22:50.938Z,49.13
2022-08-03T11:28:26.233Z,49.11
2022-08-03T11:33:32.940Z,49.00
2022-08-03T11:38:35.865Z,49.04
2022-08-03T11:43:46.446Z,49.17
2022-08-03T11:48:50.981Z,49.09
2022-08-03T11:53:55.230Z,49.22
2022-08-03T11:59:20.193Z,49.12
2022-08-03T12:04:23.004Z,49.01
2022-08-03T12:09:25.717Z,49.06
2022-08-03T12:14:49.729Z,48.91
2022-08-03T12:19:53.015Z,48.91
2022-08-03T12:24:55.712Z,48.90
2022-08-03T12:30:01.697Z,49.03
2022-08-03T12:35:05.957Z,49.04
2022-08-03T12:40:13.247Z,48.85
2022-08-03T12:45:24.082Z,48.92
2022-08-03T12:50:28.274Z,48.92
2022-08-03T12:55:56.961Z,48.95
2022-08-03T13:00:58.800Z,48.96
2022-08-03T13:06:01.580Z,48.87
2022-08-03T13:11:22.063Z,48.78
2022-08-03T13:16:27.294Z,48.96
2022-08-03T13:21:29.964Z,48.94
2022-08-03T13:26:32.646Z,48.88
2022-08-03T13:31:36.749Z,49.02
2022-08-03T13:37:08.543Z,49.23
2022-08-03T13:42:11.809Z,49.04
2022-08-03T13:47:16.166Z,49.18
2022-08-03T13:52:19.018Z,49.31
2022-08-03T13:58:05.336Z,49.42
2022-08-03T14:02:45.949Z,49.41
2022-08-03T14:07:49.434Z,49.36
2022-08-03T14:12:52.253Z,49.22
2022-08-03T14:17:58.689Z,49.37
2022-08-03T14:23:01.775Z,49.37
2022-08-03T14:28:04.679Z,49.26
2022-08-03T14:33:08.733Z,49.20
2022-08-03T14:38:11.544Z,49.32
2022-08-03T14:43:14.356Z,49.25
2022-08-03T14:50:12.572Z,49.41
2022-08-03T14:53:41.644Z,49.47
2022-08-03T14:58:44.424Z,49.23
2022-08-03T15:03:48.633Z,49.20
2022-08-03T15:09:13.727Z,49.29
2022-08-03T15:14:14.761Z,49.14
2022-08-03T15:20:02.293Z,49.50
2022-08-03T15:24:41.574Z,49.31
2022-08-03T15:30:07.212Z,49.20
2022-08-03T15:35:08.977Z,49.37
2022-08-03T15:40:12.660Z,49.26
2022-08-03T15:45:17.629Z,49.25
2022-08-03T15:50:22.111Z,49.31
2022-08-03T15:55:25.007Z,49.38
2022-08-03T16:00:33.745Z,49.23
2022-08-03T16:05:38.156Z,49.31
2022-08-03T16:10:41.030Z,49.36
2022-08-03T16:15:43.803Z,49.29
2022-08-03T16:20:48.306Z,49.32
2022-08-03T16:25:51.366Z,49.41
2022-08-03T16:30:54.073Z,49.22
2022-08-03T16:35:58.124Z,49.42
2022-08-03T16:41:00.831Z,49.50
2022-08-03T16:46:03.731Z,49.41
2022-08-03T16:51:07.822Z,49.24
2022-08-03T16:56:11.203Z,49.17
2022-08-03T17:01:22.531Z,49.25
2022-08-03T17:06:33.942Z,49.19
2022-08-03T17:11:44.052Z,49.30
2022-08-03T17:16:52.701Z,49.31
2022-08-03T17:22:04.230Z,49.43
2022-08-03T17:27:09.422Z,49.37
2022-08-03T17:32:34.544Z,49.31
2022-08-03T17:37:58.597Z,49.41
2022-08-03T17:43:02.234Z,49.33
2022-08-03T17:48:25.417Z,49.28
2022-08-03T17:53:31.661Z,49.39
2022-08-03T17:58:41.487Z,49.37
2022-08-03T18:03:58.699Z,49.41
2022-08-03T18:09:05.178Z,49.37
2022-08-03T18:14:33.643Z,49.38
2022-08-03T18:20:03.305Z,49.32
2022-08-03T18:25:07.788Z,49.42
2022-08-03T18:30:13.861Z,49.41
2022-08-03T18:35:17.992Z,49.29
2022-08-03T18:40:22.466Z,49.19
2022-08-03T18:45:56.190Z,49.34
2022-08-03T18:50:51.430Z,49.19
2022-08-03T18:56:03.249Z,49.23
2022-08-03T19:01:15.296Z,49.35
2022-08-03T19:06:39.950Z,49.56
2022-08-03T19:12:14.280Z,49.18
2022-08-03T19:17:10.598Z,47.79
2022-08-03T19:27:40.122Z,46.46
2022-08-03T19:32:54.618Z,46.06
2022-08-03T19:37:59.011Z,43.49
2022-08-03T19:43:10.734Z,44.03
2022-08-03T19:48:15.567Z,43.52
2022-08-03T19:53:18.853Z,42.91
2022-08-03T19:58:28.685Z,42.52
2022-08-03T20:03:43.434Z,41.92
2022-08-03T20:08:48.171Z,42.10
2022-08-03T20:13:56.403Z,42.01
2022-08-03T20:18:59.529Z,42.85
2022-08-03T20:24:24.246Z,43.07
2022-08-03T20:29:42.720Z,42.98
2022-08-03T20:34:53.795Z,43.56
2022-08-03T20:39:58.292Z,44.02
2022-08-03T20:45:06.026Z,43.89
2022-08-03T20:50:15.159Z,44.51
2022-08-03T20:55:18.635Z,44.17
2022-08-03T21:00:24.623Z,44.32
2022-08-03T21:05:51.237Z,44.44
2022-08-03T21:10:54.420Z,44.74
2022-08-03T21:13:02.097Z,47.31
2022-08-03T21:16:13.225Z,44.57
2022-08-03T21:21:21.046Z,44.17
2022-08-03T21:26:26.190Z,43.89
2022-08-03T21:31:30.379Z,43.87
2022-08-03T21:36:37.425Z,44.09
2022-08-03T21:41:40.926Z,44.17
2022-08-03T21:46:45.228Z,44.58
2022-08-03T21:51:50.225Z,44.32
2022-08-03T21:56:56.013Z,44.24
2022-08-03T22:02:00.268Z,44.03
2022-08-03T22:07:03.611Z,43.76
2022-08-03T22:12:07.359Z,43.85
2022-08-03T22:17:11.481Z,44.01
2022-08-03T22:22:14.539Z,43.61
2022-08-03T22:27:34.115Z,44.10
2022-08-03T22:32:38.595Z,43.66
2022-08-03T22:37:42.035Z,43.59
2022-08-03T22:42:49.331Z,43.69
2022-08-03T22:47:56.167Z,43.65
2022-08-03T22:52:59.673Z,43.68
2022-08-03T22:58:02.390Z,43.99
2022-08-03T23:03:07.385Z,44.43
2022-08-03T23:08:11.005Z,44.46
2022-08-03T23:13:14.297Z,44.61
2022-08-03T23:18:20.095Z,44.85
2022-08-03T23:23:22.998Z,45.05
2022-08-03T23:28:26.221Z,45.18
2022-08-03T23:33:30.674Z,44.88
2022-08-03T23:38:36.911Z,45.02
2022-08-03T23:43:51.083Z,45.25
2022-08-03T23:48:59.802Z,45.35
2022-08-03T23:54:05.675Z,45.30
2022-08-03T23:59:15.673Z,45.23
